Time;durP1;ratioP1;P1;durP2;ratioP2;P2;SDS_P1;SDS_P2;PMS_P1;PMS_P2;Temp;Humidity;BMP_temperature;BMP_pressure;BME280_temperature;BME280_humidity;BME280_pressure;Samples;Min_cycle;Max_cycle;Signal;HPM_P1;HPM_P2
2021/05/03 00:00:59;;;;;;;1.85;1.10;;;13.00;99.90;;;;;;5032986;28;20486;-76
2021/05/03 00:03:24;;;;;;;2.35;1.20;;;12.90;99.90;;;;;;5032958;28;20466;-75
2021/05/03 00:05:56;;;;;;;2.17;1.00;;;12.90;99.90;;;;;;5032649;28;20056;-77
2021/05/03 00:08:23;;;;;;;7.18;1.10;;;12.80;99.90;;;;;;5032744;28;20037;-75
2021/05/03 00:10:49;;;;;;;6.30;1.52;;;12.80;99.90;;;;;;5032149;28;20041;-75
2021/05/03 00:13:14;;;;;;;4.25;1.08;;;12.80;99.90;;;;;;5032318;28;20414;-74
2021/05/03 00:15:40;;;;;;;3.35;1.25;;;12.70;99.90;;;;;;5033185;28;20064;-73
2021/05/03 00:18:06;;;;;;;1.63;1.20;;;12.70;99.90;;;;;;5034796;28;20470;-73
2021/05/03 00:20:32;;;;;;;1.50;0.85;;;12.60;99.90;;;;;;5032582;28;20037;-72
2021/05/03 00:22:57;;;;;;;2.88;1.00;;;12.50;99.90;;;;;;5031317;28;20129;-73
2021/05/03 00:25:23;;;;;;;3.28;0.85;;;12.50;99.90;;;;;;5032028;28;20065;-74
2021/05/03 00:27:49;;;;;;;1.38;0.80;;;12.40;99.90;;;;;;5031856;28;20102;-72
2021/05/03 00:30:15;;;;;;;2.50;1.00;;;12.40;99.90;;;;;;5032557;28;20040;-73
2021/05/03 00:32:42;;;;;;;2.25;0.90;;;12.40;99.90;;;;;;5032130;28;20037;-72
2021/05/03 00:35:09;;;;;;;3.58;0.90;;;12.40;99.90;;;;;;5032718;28;20025;-75
2021/05/03 00:37:34;;;;;;;11.82;1.27;;;12.30;99.90;;;;;;5032312;28;20056;-73
2021/05/03 00:40:00;;;;;;;1.75;1.00;;;12.30;99.90;;;;;;5032413;28;20474;-74
2021/05/03 00:42:26;;;;;;;18.02;1.75;;;12.30;99.90;;;;;;5031782;28;20025;-74
2021/05/03 00:44:52;;;;;;;3.05;1.10;;;12.40;99.90;;;;;;5031895;28;20061;-74
2021/05/03 00:47:21;;;;;;;1.00;0.90;;;12.40;99.90;;;;;;5030621;28;20046;-75
2021/05/03 00:49:47;;;;;;;6.53;1.30;;;12.40;99.90;;;;;;5030201;28;20072;-74
2021/05/03 00:52:13;;;;;;;3.80;1.20;;;12.40;99.90;;;;;;5029888;28;20049;-73
2021/05/03 00:54:39;;;;;;;0.68;0.68;;;12.30;99.90;;;;;;5030386;28;20088;-74
2021/05/03 00:57:06;;;;;;;1.35;0.77;;;12.30;99.90;;;;;;5028730;28;20026;-74
2021/05/03 00:59:32;;;;;;;3.83;0.98;;;12.20;99.90;;;;;;5030440;28;20417;-73
2021/05/03 01:01:58;;;;;;;1.70;0.90;;;12.20;99.90;;;;;;5030946;28;20035;-74
2021/05/03 01:04:24;;;;;;;1.38;0.70;;;12.10;99.90;;;;;;5031800;28;20075;-74
2021/05/03 01:06:49;;;;;;;1.55;0.80;;;12.10;99.90;;;;;;5031452;28;20065;-73
2021/05/03 01:09:15;;;;;;;1.73;0.70;;;12.10;99.90;;;;;;5031374;28;20065;-74
2021/05/03 01:11:41;;;;;;;7.28;0.80;;;12.10;99.90;;;;;;5032172;28;20570;-74
2021/05/03 01:14:07;;;;;;;6.22;0.70;;;12.10;99.90;;;;;;5032103;28;20037;-74
2021/05/03 01:16:33;;;;;;;0.60;0.60;;;12.00;99.90;;;;;;5031700;28;20385;-74
2021/05/03 01:18:59;;;;;;;1.17;0.90;;;12.00;99.90;;;;;;5031763;28;20034;-73
2021/05/03 01:21:26;;;;;;;1.55;0.93;;;11.90;99.90;;;;;;5031376;28;20030;-74
2021/05/03 01:23:52;;;;;;;1.77;0.88;;;11.90;99.90;;;;;;5046516;28;20029;-74
2021/05/03 01:26:18;;;;;;;3.88;0.70;;;11.90;99.90;;;;;;5031121;28;20405;-73
2021/05/03 01:28:44;;;;;;;0.70;0.70;;;11.80;99.90;;;;;;5032305;28;20514;-73
2021/05/03 01:31:10;;;;;;;2.20;0.80;;;11.80;99.90;;;;;;5035633;28;20107;-73
2021/05/03 01:33:36;;;;;;;3.15;0.80;;;11.70;99.90;;;;;;5035647;28;20036;-73
2021/05/03 01:36:02;;;;;;;0.60;0.60;;;11.70;99.90;;;;;;5035622;28;20660;-73
2021/05/03 01:38:28;;;;;;;1.45;0.73;;;11.70;99.90;;;;;;5035648;28;20025;-73
2021/05/03 01:40:54;;;;;;;2.13;0.82;;;11.70;99.90;;;;;;5035874;28;20104;-73
2021/05/03 01:43:23;;;;;;;6.18;0.70;;;11.70;99.90;;;;;;5035792;28;20061;-73
2021/05/03 01:45:50;;;;;;;1.42;0.80;;;11.70;99.90;;;;;;5035603;28;20064;-73
2021/05/03 01:48:19;;;;;;;1.08;1.08;;;11.60;99.90;;;;;;5035210;28;20494;-74
2021/05/03 01:50:46;;;;;;;3.45;0.73;;;11.60;99.90;;;;;;5033881;28;20029;-73
2021/05/03 01:53:12;;;;;;;0.85;0.70;;;11.70;99.90;;;;;;5035451;28;20421;-76
2021/05/03 01:55:38;;;;;;;0.82;0.82;;;11.60;99.90;;;;;;5035480;28;20021;-74
2021/05/03 01:58:06;;;;;;;1.02;0.80;;;11.70;99.90;;;;;;5035573;28;20510;-74
2021/05/03 02:00:33;;;;;;;3.97;0.70;;;11.60;99.90;;;;;;5035609;28;20083;-72
2021/05/03 02:02:59;;;;;;;0.80;0.80;;;11.60;99.90;;;;;;5035231;28;20037;-74
2021/05/03 02:05:26;;;;;;;0.73;0.73;;;11.60;99.90;;;;;;5035452;28;20033;-74
2021/05/03 02:08:05;;;;;;;1.55;0.80;;;11.50;99.90;;;;;;5035430;28;20076;-73
2021/05/03 02:10:33;;;;;;;0.70;0.70;;;11.50;99.90;;;;;;5020384;28;20029;-74
2021/05/03 02:13:00;;;;;;;0.77;0.77;;;11.60;99.90;;;;;;5035276;28;20053;-74
2021/05/03 02:15:27;;;;;;;1.67;0.80;;;11.60;99.90;;;;;;5034848;28;20037;-74
2021/05/03 02:17:53;;;;;;;1.17;0.80;;;11.60;99.90;;;;;;5035402;28;20389;-73
2021/05/03 02:20:20;;;;;;;0.90;0.90;;;11.60;99.90;;;;;;5035101;28;20029;-73
2021/05/03 02:22:46;;;;;;;0.90;0.90;;;11.50;99.90;;;;;;5035232;28;20041;-73
2021/05/03 02:25:12;;;;;;;0.95;0.85;;;11.50;99.90;;;;;;5034588;28;20025;-73
2021/05/03 02:27:38;;;;;;;0.88;0.70;;;11.50;99.90;;;;;;5034874;28;20080;-74
2021/05/03 02:30:05;;;;;;;0.80;0.80;;;11.60;99.90;;;;;;5034984;28;20030;-74
2021/05/03 02:32:35;;;;;;;2.97;0.80;;;11.60;99.90;;;;;;5033481;28;20481;-74
2021/05/03 02:35:04;;;;;;;0.60;0.60;;;11.60;99.90;;;;;;5033472;28;20045;-74
2021/05/03 02:37:29;;;;;;;0.60;0.60;;;11.60;99.90;;;;;;5034415;28;20033;-74
2021/05/03 02:39:55;;;;;;;2.22;0.80;;;11.50;99.90;;;;;;5034398;28;20027;-75
2021/05/03 02:42:21;;;;;;;0.75;0.75;;;11.50;99.90;;;;;;5034586;28;20176;-74
2021/05/03 02:44:47;;;;;;;0.60;0.60;;;11.50;99.90;;;;;;5034579;28;20030;-73
2021/05/03 02:47:13;;;;;;;3.22;0.68;;;11.40;99.90;;;;;;5034669;28;20045;-73
2021/05/03 02:49:38;;;;;;;0.50;0.50;;;11.40;99.90;;;;;;5034456;28;20048;-73
2021/05/03 02:52:04;;;;;;;0.93;0.60;;;11.40;99.90;;;;;;5034718;28;20473;-73
2021/05/03 02:54:30;;;;;;;1.65;0.60;;;11.30;99.90;;;;;;5034120;28;20731;-74
2021/05/03 02:56:56;;;;;;;0.60;0.60;;;11.20;99.90;;;;;;5034546;28;20080;-75
2021/05/03 02:59:22;;;;;;;3.33;0.60;;;11.10;99.90;;;;;;5033965;28;20380;-74
2021/05/03 03:01:47;;;;;;;0.70;0.70;;;11.00;99.90;;;;;;5032958;28;20026;-73
2021/05/03 03:04:14;;;;;;;0.70;0.70;;;11.00;99.90;;;;;;5034299;28;20386;-73
2021/05/03 03:06:40;;;;;;;0.70;0.70;;;10.90;99.90;;;;;;5032895;28;20470;-73
2021/05/03 03:09:06;;;;;;;0.63;0.63;;;10.80;99.90;;;;;;5034472;28;20099;-73
2021/05/03 03:11:32;;;;;;;1.10;0.82;;;10.80;99.90;;;;;;5033655;28;20490;-74
2021/05/03 03:14:00;;;;;;;0.90;0.90;;;10.70;99.90;;;;;;5033931;28;20045;-74
2021/05/03 03:16:26;;;;;;;0.70;0.70;;;10.60;99.90;;;;;;5048658;28;20029;-74
2021/05/03 03:18:55;;;;;;;1.92;1.00;;;10.50;99.90;;;;;;5033567;28;20032;-74
2021/05/03 03:21:23;;;;;;;2.22;0.90;;;10.50;99.90;;;;;;5033939;28;20113;-74
2021/05/03 03:23:49;;;;;;;1.00;1.00;;;10.50;99.90;;;;;;5033576;28;20113;-73
2021/05/03 03:26:14;;;;;;;1.15;1.00;;;10.50;99.90;;;;;;5033771;28;20029;-74
2021/05/03 03:28:40;;;;;;;0.90;0.90;;;10.50;99.90;;;;;;5033554;28;20486;-73
2021/05/03 03:31:06;;;;;;;2.65;0.95;;;10.50;99.90;;;;;;5033489;28;20112;-73
2021/05/03 03:33:32;;;;;;;0.93;0.93;;;10.40;99.90;;;;;;5033353;28;20482;-74
2021/05/03 03:35:58;;;;;;;1.73;0.98;;;10.40;99.90;;;;;;5033912;28;20026;-75
2021/05/03 03:38:23;;;;;;;2.08;0.90;;;10.30;99.90;;;;;;5033454;28;20044;-73
2021/05/03 03:40:49;;;;;;;3.25;0.90;;;10.30;99.90;;;;;;5033324;28;20117;-73
2021/05/03 03:43:15;;;;;;;3.53;0.80;;;10.30;99.90;;;;;;5033610;28;20037;-74
2021/05/03 03:45:41;;;;;;;0.88;0.88;;;10.30;99.90;;;;;;5033397;28;20018;-74
2021/05/03 03:48:07;;;;;;;0.93;0.93;;;10.30;99.90;;;;;;5033519;28;20092;-74
2021/05/03 03:50:34;;;;;;;2.65;1.00;;;10.20;99.90;;;;;;5032786;28;20053;-73
2021/05/03 03:53:00;;;;;;;1.63;0.90;;;10.20;99.90;;;;;;5032505;28;20382;-73
2021/05/03 03:55:29;;;;;;;1.05;0.80;;;10.20;99.90;;;;;;5032814;28;20036;-74
2021/05/03 03:57:55;;;;;;;2.67;0.80;;;10.20;99.90;;;;;;5032890;28;20037;-73
2021/05/03 04:00:23;;;;;;;0.90;0.90;;;10.20;99.90;;;;;;5033268;28;20033;-74
2021/05/03 04:02:50;;;;;;;1.02;0.93;;;10.20;99.90;;;;;;5033088;28;20029;-73
2021/05/03 04:08:08;;;;;;;1.00;1.00;;;10.20;99.90;;;;;;5033028;28;20045;-73
2021/05/03 04:24:12;;;;;;;0.90;0.90;;;10.10;99.90;;;;;;5032773;28;20458;-73
2021/05/03 04:26:38;;;;;;;2.83;1.13;;;10.10;99.90;;;;;;5032177;28;20034;-73
2021/05/03 04:29:04;;;;;;;2.50;0.85;;;10.10;99.90;;;;;;5032037;28;20037;-73
2021/05/03 04:31:30;;;;;;;2.45;1.00;;;10.10;99.90;;;;;;5032039;28;20025;-73
2021/05/03 04:33:56;;;;;;;0.90;0.90;;;10.10;99.90;;;;;;5032169;28;20474;-73
2021/05/03 04:36:21;;;;;;;2.40;1.20;;;10.10;99.90;;;;;;5032644;28;20061;-74
2021/05/03 04:38:48;;;;;;;0.70;0.70;;;10.10;99.90;;;;;;5032286;28;20127;-75
2021/05/03 04:41:15;;;;;;;0.98;0.95;;;10.10;99.90;;;;;;5046341;28;20041;-74
2021/05/03 04:43:41;;;;;;;1.05;1.05;;;10.10;99.90;;;;;;5031875;28;20207;-73
2021/05/03 04:46:07;;;;;;;1.10;1.10;;;10.10;99.90;;;;;;5032258;28;20069;-73
2021/05/03 04:48:33;;;;;;;1.05;1.00;;;10.10;99.90;;;;;;5032017;28;20037;-73
2021/05/03 04:50:58;;;;;;;3.00;1.00;;;10.10;99.90;;;;;;5031787;28;20021;-74
2021/05/03 04:53:25;;;;;;;0.90;0.90;;;10.10;99.90;;;;;;5031930;28;20022;-74
2021/05/03 04:55:50;;;;;;;1.10;1.00;;;10.10;99.90;;;;;;5031360;28;20544;-74
2021/05/03 04:58:16;;;;;;;3.25;1.02;;;10.10;99.90;;;;;;5032127;28;20112;-73
2021/05/03 05:00:42;;;;;;;1.00;1.00;;;10.10;99.90;;;;;;5032047;28;20417;-72
2021/05/03 05:03:08;;;;;;;0.90;0.90;;;10.20;99.90;;;;;;5031889;28;20032;-72
2021/05/03 05:05:34;;;;;;;6.63;1.15;;;10.20;99.90;;;;;;5032031;28;20029;-72
2021/05/03 05:08:00;;;;;;;1.20;1.00;;;10.30;99.90;;;;;;5031610;28;20053;-73
2021/05/03 05:10:26;;;;;;;1.00;1.00;;;10.30;99.90;;;;;;5031197;28;20076;-73
2021/05/03 05:12:52;;;;;;;1.88;0.98;;;10.30;99.90;;;;;;5031534;28;20057;-74
2021/05/03 05:15:18;;;;;;;4.65;0.98;;;10.40;99.90;;;;;;5031793;28;20021;-74
2021/05/03 05:17:45;;;;;;;1.25;1.13;;;10.40;99.90;;;;;;5031420;28;20038;-77
2021/05/03 05:20:11;;;;;;;1.10;1.00;;;10.40;99.90;;;;;;5031240;28;20029;-74
2021/05/03 05:22:38;;;;;;;0.93;0.93;;;10.50;99.90;;;;;;5046807;28;20265;-74
2021/05/03 05:25:08;;;;;;;1.00;1.00;;;10.60;99.90;;;;;;5031359;28;20037;-74
2021/05/03 05:27:33;;;;;;;1.17;0.90;;;10.60;99.90;;;;;;5030232;28;20108;-74
2021/05/03 05:29:59;;;;;;;0.90;0.90;;;10.70;99.90;;;;;;5031577;28;20105;-75
2021/05/03 05:32:25;;;;;;;0.93;0.93;;;10.70;99.90;;;;;;5031858;28;20049;-74
2021/05/03 05:34:50;;;;;;;5.40;1.20;;;10.80;99.90;;;;;;5031541;28;20036;-75
2021/05/03 05:37:16;;;;;;;0.95;0.95;;;10.80;99.90;;;;;;5023369;28;20060;-75
2021/05/03 05:39:42;;;;;;;2.65;1.05;;;10.80;99.90;;;;;;5031351;28;20055;-75
2021/05/03 05:42:08;;;;;;;5.25;1.17;;;10.80;99.90;;;;;;5031598;28;20951;-75
2021/05/03 05:44:34;;;;;;;1.58;1.35;;;10.80;99.90;;;;;;5030761;28;20045;-75
2021/05/03 05:46:59;;;;;;;3.60;0.90;;;10.70;99.90;;;;;;5031596;28;20041;-75
2021/05/03 05:49:26;;;;;;;1.33;1.23;;;10.70;99.90;;;;;;5031498;28;20034;-74
2021/05/03 05:51:52;;;;;;;1.13;1.13;;;10.70;99.90;;;;;;5030678;28;20025;-77
2021/05/03 05:54:18;;;;;;;1.00;1.00;;;10.70;99.90;;;;;;5030468;28;20111;-75
2021/05/03 05:56:44;;;;;;;1.10;1.10;;;10.70;99.90;;;;;;5031326;28;20025;-77
2021/05/03 05:59:10;;;;;;;1.08;0.93;;;10.70;99.90;;;;;;5030413;28;20124;-75
2021/05/03 06:01:36;;;;;;;4.47;1.02;;;10.80;99.90;;;;;;5031493;28;20036;-77
2021/05/03 06:04:02;;;;;;;2.10;1.02;;;10.80;99.90;;;;;;5031486;28;20041;-75
2021/05/03 06:06:27;;;;;;;2.05;1.08;;;10.80;99.90;;;;;;5031575;28;20057;-75
2021/05/03 06:08:53;;;;;;;23.67;1.45;;;10.90;99.90;;;;;;5031560;28;20088;-74
2021/05/03 06:11:19;;;;;;;1.00;1.00;;;10.90;99.90;;;;;;5031139;28;20045;-74
2021/05/03 06:13:45;;;;;;;5.18;1.38;;;10.90;99.90;;;;;;5031231;28;20029;-75
2021/05/03 06:16:10;;;;;;;0.93;0.93;;;10.90;99.90;;;;;;5034983;28;20037;-75
2021/05/03 06:18:36;;;;;;;2.50;1.00;;;11.00;99.90;;;;;;5035292;28;20038;-74
2021/05/03 06:21:02;;;;;;;1.10;1.00;;;11.10;99.90;;;;;;5035183;28;20025;-74
2021/05/03 06:23:28;;;;;;;0.80;0.80;;;11.10;99.90;;;;;;5034621;28;20029;-75
2021/05/03 06:25:54;;;;;;;1.13;1.00;;;11.10;99.90;;;;;;5035171;28;20030;-75
2021/05/03 06:28:21;;;;;;;1.00;1.00;;;11.10;99.90;;;;;;5035015;28;20085;-75
2021/05/03 06:30:53;;;;;;;5.72;1.00;;;11.20;99.90;;;;;;5034882;28;20080;-76
2021/05/03 06:33:19;;;;;;;2.50;1.08;;;11.30;99.90;;;;;;5034867;28;20036;-75
2021/05/03 06:35:44;;;;;;;0.80;0.80;;;11.30;99.90;;;;;;5034728;28;20033;-78
2021/05/03 06:38:10;;;;;;;1.52;1.00;;;11.30;99.90;;;;;;5034992;28;20034;-75
2021/05/03 06:40:36;;;;;;;1.42;1.30;;;11.30;99.90;;;;;;5033793;28;20029;-76
2021/05/03 06:43:02;;;;;;;1.45;1.20;;;11.30;99.90;;;;;;5033315;28;20371;-74
2021/05/03 06:45:30;;;;;;;1.20;1.13;;;11.40;99.90;;;;;;5034001;28;20032;-74
2021/05/03 06:47:56;;;;;;;0.93;0.90;;;11.40;99.90;;;;;;5033629;28;20072;-74
2021/05/03 06:50:22;;;;;;;1.35;1.25;;;11.50;99.90;;;;;;5033344;28;20459;-75
2021/05/03 06:52:48;;;;;;;1.27;1.17;;;11.50;99.90;;;;;;5031111;28;20034;-74
2021/05/03 06:55:14;;;;;;;1.10;1.10;;;11.60;99.90;;;;;;5034234;28;20463;-76
2021/05/03 06:57:41;;;;;;;3.95;1.10;;;11.70;99.90;;;;;;5033893;28;20068;-75
2021/05/03 07:00:09;;;;;;;0.90;0.90;;;11.80;99.90;;;;;;5034638;28;20041;-75
2021/05/03 07:02:35;;;;;;;4.97;0.98;;;12.00;99.90;;;;;;5033633;28;20037;-75
2021/05/03 07:05:01;;;;;;;1.30;1.20;;;12.00;99.90;;;;;;5032336;28;20028;-74
2021/05/03 07:07:27;;;;;;;1.83;1.00;;;12.00;99.90;;;;;;5033136;28;20112;-75
2021/05/03 07:09:52;;;;;;;2.08;1.00;;;12.00;99.90;;;;;;5033565;28;20161;-73
2021/05/03 07:12:21;;;;;;;1.98;1.00;;;12.10;99.90;;;;;;5033158;28;20044;-74
2021/05/03 07:14:47;;;;;;;1.10;1.10;;;12.20;99.90;;;;;;5033638;28;20441;-74
2021/05/03 07:17:13;;;;;;;1.80;1.10;;;12.40;99.90;;;;;;5034346;28;20013;-74
2021/05/03 07:19:39;;;;;;;2.47;1.00;;;12.60;99.90;;;;;;5034123;28;20386;-74
2021/05/03 07:22:06;;;;;;;1.65;1.15;;;12.70;99.90;;;;;;5034041;28;20091;-75
2021/05/03 07:24:32;;;;;;;1.20;1.10;;;12.80;99.90;;;;;;5049279;28;20040;-74
2021/05/03 07:26:58;;;;;;;0.95;0.95;;;12.90;99.90;;;;;;5047803;28;20156;-74
2021/05/03 07:29:24;;;;;;;0.80;0.80;;;13.20;99.90;;;;;;5033847;28;20111;-75
2021/05/03 07:31:50;;;;;;;3.00;1.00;;;13.50;99.90;;;;;;5033958;28;20557;-74
2021/05/03 07:34:17;;;;;;;1.67;0.90;;;13.90;99.90;;;;;;5034076;28;20103;-74
2021/05/03 07:36:43;;;;;;;0.80;0.80;;;14.50;99.90;;;;;;5048972;28;20075;-75
2021/05/03 07:39:09;;;;;;;0.73;0.73;;;15.20;99.90;;;;;;5023092;28;20013;-74
2021/05/03 07:41:35;;;;;;;1.08;0.73;;;15.70;99.90;;;;;;5033600;28;20025;-74
2021/05/03 07:44:02;;;;;;;1.90;0.60;;;16.10;99.90;;;;;;5033785;28;20029;-74
2021/05/03 07:46:28;;;;;;;2.33;1.00;;;16.20;99.90;;;;;;5033867;28;20039;-75
2021/05/03 07:48:56;;;;;;;2.70;0.85;;;16.40;99.90;;;;;;5033387;28;20049;-74
2021/05/03 07:51:22;;;;;;;0.60;0.60;;;16.40;99.90;;;;;;5033600;28;20389;-78
2021/05/03 07:53:49;;;;;;;1.27;0.88;;;16.20;99.90;;;;;;5032747;28;20071;-78
2021/05/03 07:56:16;;;;;;;5.30;0.80;;;16.00;99.90;;;;;;5048828;28;20057;-77
2021/05/03 07:58:43;;;;;;;0.70;0.70;;;15.90;99.90;;;;;;5033390;28;20064;-77
2021/05/03 08:01:10;;;;;;;4.60;0.73;;;15.90;99.90;;;;;;5033243;28;20037;-77
2021/05/03 08:03:38;;;;;;;1.05;0.82;;;15.80;99.90;;;;;;5033403;28;20033;-78
2021/05/03 08:06:04;;;;;;;0.80;0.70;;;15.70;99.90;;;;;;5033353;28;20124;-77
2021/05/03 08:08:30;;;;;;;3.13;0.73;;;15.80;99.90;;;;;;5032979;28;20504;-77
2021/05/03 08:10:56;;;;;;;0.80;0.70;;;15.90;99.90;;;;;;5032906;28;20112;-78
2021/05/03 08:13:22;;;;;;;0.90;0.82;;;15.90;99.90;;;;;;5032669;28;20037;-77
2021/05/03 08:15:51;;;;;;;2.75;1.05;;;16.00;99.90;;;;;;5031743;28;20405;-77
2021/05/03 08:18:16;;;;;;;1.90;0.90;;;16.00;99.90;;;;;;5033220;28;20064;-77
2021/05/03 08:20:42;;;;;;;8.98;1.33;;;16.10;99.90;;;;;;5032859;28;20060;-78
2021/05/03 08:23:12;;;;;;;2.75;0.85;;;16.10;99.90;;;;;;5032954;28;20049;-78
2021/05/03 08:25:38;;;;;;;1.02;0.70;;;16.20;99.90;;;;;;5031587;28;20434;-77
2021/05/03 08:28:04;;;;;;;4.35;1.00;;;16.40;99.90;;;;;;5032454;28;20509;-78
2021/05/03 08:30:30;;;;;;;4.53;1.02;;;16.60;99.90;;;;;;5032251;28;20029;-78
2021/05/03 08:32:56;;;;;;;8.48;0.80;;;16.60;99.90;;;;;;5032616;28;20468;-78
2021/05/03 08:35:21;;;;;;;6.43;1.13;;;16.50;99.90;;;;;;5032649;28;20468;-78
2021/05/03 08:37:47;;;;;;;1.05;0.85;;;16.60;99.90;;;;;;5032661;28;20026;-77
2021/05/03 08:40:16;;;;;;;1.35;0.88;;;16.80;99.90;;;;;;5032567;28;20037;-78
2021/05/03 08:42:43;;;;;;;6.85;1.02;;;16.70;99.90;;;;;;5032181;28;20039;-77
2021/05/03 08:45:13;;;;;;;8.85;1.38;;;16.80;99.90;;;;;;5032808;28;20029;-77
2021/05/03 08:47:41;;;;;;;3.75;1.05;;;16.80;99.90;;;;;;5032624;28;20056;-77
2021/05/03 08:50:16;;;;;;;5.80;1.13;;;16.80;99.90;;;;;;5048036;28;20064;-77
2021/05/03 08:52:46;;;;;;;3.78;1.08;;;16.90;99.90;;;;;;5032388;28;20027;-76
2021/05/03 08:55:13;;;;;;;4.47;1.02;;;16.70;99.90;;;;;;5031287;28;20072;-76
2021/05/03 08:57:42;;;;;;;11.38;1.38;;;16.60;99.90;;;;;;5032084;28;20029;-77
2021/05/03 09:00:14;;;;;;;10.35;1.10;;;16.70;99.90;;;;;;5032635;28;20018;-77
2021/05/03 09:02:43;;;;;;;1.27;0.98;;;16.90;99.90;;;;;;5032244;28;20068;-76
2021/05/03 09:05:09;;;;;;;5.72;1.15;;;16.90;99.90;;;;;;5031723;28;20026;-77
2021/05/03 09:07:35;;;;;;;5.95;1.40;;;17.00;99.90;;;;;;5031905;28;20034;-77
2021/05/03 09:10:12;;;;;;;5.95;0.70;;;17.00;99.90;;;;;;5032548;28;20037;-76
2021/05/03 09:12:38;;;;;;;1.23;0.70;;;17.10;99.90;;;;;;5032094;28;20046;-76
2021/05/03 09:15:05;;;;;;;1.55;0.82;;;17.00;99.90;;;;;;5032076;28;20508;-77
2021/05/03 09:17:36;;;;;;;2.60;0.88;;;17.20;99.90;;;;;;5031173;28;20037;-77
2021/05/03 09:20:13;;;;;;;3.80;1.50;;;17.40;99.90;;;;;;5032687;28;20370;-77
2021/05/03 09:25:32;;;;;;;2.35;1.25;;;17.70;99.90;;;;;;5032416;28;20428;-77
2021/05/03 09:28:24;;;;;;;7.40;0.90;;;17.80;99.90;;;;;;5032329;28;20046;-79
2021/05/03 09:30:59;;;;;;;7.40;1.33;;;17.80;99.90;;;;;;5030141;28;20045;-80
2021/05/03 09:33:38;;;;;;;3.08;1.00;;;17.80;99.90;;;;;;5032099;28;20032;-79
2021/05/03 09:36:13;;;;;;;3.75;0.82;;;17.80;99.90;;;;;;5032173;28;20104;-80
2021/05/03 09:38:48;;;;;;;11.75;1.02;;;17.80;99.90;;;;;;5031918;28;20108;-79
2021/05/03 09:41:24;;;;;;;0.73;0.65;;;18.10;99.90;;;;;;5032180;28;20175;-78
2021/05/03 09:44:03;;;;;;;2.70;0.75;;;18.30;99.90;;;;;;5032031;28;20500;-79
2021/05/03 09:46:38;;;;;;;3.47;0.77;;;18.10;99.90;;;;;;5031991;28;20064;-78
2021/05/03 09:49:09;;;;;;;9.73;1.02;;;18.10;99.90;;;;;;5031647;28;20041;-79
2021/05/03 09:51:50;;;;;;;1.15;0.80;;;18.10;99.90;;;;;;5035934;28;20385;-79
2021/05/03 09:54:28;;;;;;;5.85;1.65;;;18.10;99.90;;;;;;5035957;28;20052;-78
2021/05/03 09:57:06;;;;;;;9.57;1.60;;;17.90;99.90;;;;;;5036000;28;20029;-78
2021/05/03 09:59:40;;;;;;;10.27;2.65;;;17.90;99.90;;;;;;5032080;28;20041;-78
2021/05/03 10:02:14;;;;;;;4.15;0.90;;;17.90;99.90;;;;;;5035339;28;20026;-79
2021/05/03 10:05:09;;;;;;;1.38;0.80;;;18.10;99.90;;;;;;5035401;28;20056;-79
2021/05/03 10:07:41;;;;;;;2.33;1.00;;;18.20;99.90;;;;;;5036016;28;20049;-78
2021/05/03 10:10:18;;;;;;;1.05;0.75;;;18.30;99.90;;;;;;5035696;28;20021;-78
2021/05/03 10:12:45;;;;;;;5.20;0.90;;;18.50;99.90;;;;;;5035380;28;20055;-79
2021/05/03 10:15:16;;;;;;;1.52;0.85;;;18.60;99.90;;;;;;5035420;28;20017;-78
2021/05/03 10:17:43;;;;;;;4.20;1.23;;;18.70;99.90;;;;;;5033759;28;20720;-78
2021/05/03 10:20:12;;;;;;;0.85;0.75;;;18.80;99.90;;;;;;5035159;28;20056;-78
2021/05/03 10:22:38;;;;;;;1.48;0.90;;;18.70;99.90;;;;;;5034339;28;20034;-78
2021/05/03 10:25:08;;;;;;;2.10;0.80;;;18.60;99.90;;;;;;5035398;28;20119;-78
2021/05/03 10:27:42;;;;;;;2.35;1.00;;;18.60;99.90;;;;;;5035438;28;20041;-78
2021/05/03 10:30:19;;;;;;;1.00;0.70;;;18.60;99.90;;;;;;5035375;28;20026;-78
2021/05/03 10:33:06;;;;;;;0.98;0.80;;;18.70;99.90;;;;;;5035656;28;20084;-78
2021/05/03 10:35:34;;;;;;;1.75;0.88;;;18.90;99.90;;;;;;5035027;28;20556;-79
2021/05/03 10:38:00;;;;;;;1.45;0.90;;;18.80;99.90;;;;;;5034176;28;20072;-78
2021/05/03 10:40:28;;;;;;;2.28;1.35;;;18.70;99.90;;;;;;5035398;28;20444;-78
2021/05/03 10:43:06;;;;;;;0.80;0.80;;;18.80;99.90;;;;;;5035730;28;20026;-78
2021/05/03 10:45:40;;;;;;;2.25;0.85;;;18.80;99.90;;;;;;5035408;28;20029;-79
2021/05/03 10:51:42;;;;;;;1.20;0.70;;;18.90;99.90;;;;;;5035269;28;20025;-78
2021/05/03 10:54:29;;;;;;;0.60;0.60;;;18.90;99.90;;;;;;5035856;28;20024;-78
2021/05/03 10:56:58;;;;;;;1.27;0.80;;;18.80;99.90;;;;;;5038949;28;20089;-80
2021/05/03 10:59:24;;;;;;;0.82;0.82;;;18.90;99.90;;;;;;5037822;28;20037;-79
2021/05/03 11:01:53;;;;;;;2.33;0.95;;;19.00;99.90;;;;;;5035344;28;20064;-79
2021/05/03 11:04:22;;;;;;;1.13;0.90;;;19.00;99.90;;;;;;5035040;28;20550;-79
2021/05/03 11:06:50;;;;;;;1.02;0.75;;;19.10;99.90;;;;;;5035028;28;20152;-79
2021/05/03 11:09:28;;;;;;;2.10;0.70;;;19.00;99.90;;;;;;5035347;28;20052;-78
2021/05/03 11:12:06;;;;;;;2.25;1.00;;;19.00;99.90;;;;;;5035021;28;20046;-79
2021/05/03 11:14:34;;;;;;;6.75;0.90;;;19.10;99.90;;;;;;5035192;28;20112;-79
2021/05/03 11:17:14;;;;;;;3.45;1.20;;;19.20;99.90;;;;;;5035155;28;20516;-79
2021/05/03 11:20:00;;;;;;;1.48;0.70;;;19.30;99.90;;;;;;5034744;28;20175;-79
2021/05/03 11:23:06;;;;;;;2.03;0.70;;;19.30;99.90;;;;;;5028306;28;20092;-79
2021/05/03 11:25:34;;;;;;;1.40;0.88;;;19.40;99.90;;;;;;5034716;28;20033;-78
2021/05/03 11:30:35;;;;;;;3.67;1.20;;;19.10;99.90;;;;;;5034607;28;20453;-78
2021/05/03 11:33:14;;;;;;;8.55;1.42;;;19.00;99.90;;;;;;5034538;28;20119;-79
2021/05/03 11:38:32;;;;;;;4.68;1.27;;;19.00;99.90;;;;;;5034751;28;20092;-78
2021/05/03 11:46:25;;;;;;;7.82;1.45;;;19.00;99.90;;;;;;5020355;28;20030;-79
2021/05/03 11:48:52;;;;;;;4.00;0.88;;;19.10;99.90;;;;;;5034722;28;20034;-78
2021/05/03 11:51:18;;;;;;;1.80;1.10;;;19.10;99.70;;;;;;5034172;28;20022;-78
2021/05/03 11:53:45;;;;;;;13.10;1.30;;;19.10;99.90;;;;;;5034859;28;20108;-78
2021/05/03 11:56:27;;;;;;;35.15;2.60;;;19.20;99.90;;;;;;5034259;28;20032;-78
2021/05/03 11:58:55;;;;;;;9.27;1.48;;;19.20;99.90;;;;;;5034170;28;20549;-78
2021/05/03 12:01:23;;;;;;;1.17;0.57;;;19.20;99.90;;;;;;5033959;28;20048;-79
2021/05/03 12:03:51;;;;;;;6.35;1.25;;;19.00;99.50;;;;;;5034011;28;20482;-78
2021/05/03 12:06:30;;;;;;;5.35;1.13;;;18.90;99.90;;;;;;5034063;28;20068;-78
2021/05/03 12:09:22;;;;;;;10.57;1.40;;;19.10;99.90;;;;;;5033002;28;20049;-78
2021/05/03 12:11:58;;;;;;;3.70;1.20;;;19.20;99.90;;;;;;5030716;28;20037;-78
2021/05/03 12:14:48;;;;;;;4.07;1.55;;;19.20;99.90;;;;;;5032997;28;20030;-79
2021/05/03 12:17:18;;;;;;;1.52;1.00;;;19.30;99.90;;;;;;5033199;28;20402;-79
2021/05/03 12:19:45;;;;;;;1.42;0.70;;;19.30;99.90;;;;;;5031905;28;20465;-78
2021/05/03 12:22:11;;;;;;;0.82;0.50;;;19.30;99.90;;;;;;5032045;28;20512;-79
2021/05/03 12:24:41;;;;;;;5.75;1.10;;;19.30;99.80;;;;;;5032490;28;20069;-79
2021/05/03 12:27:06;;;;;;;3.80;0.82;;;19.30;99.40;;;;;;5047327;28;20035;-79
2021/05/03 12:29:33;;;;;;;12.07;1.67;;;19.30;99.10;;;;;;5031162;28;20124;-79
2021/05/03 12:31:59;;;;;;;9.85;1.27;;;19.30;99.90;;;;;;5031502;28;20034;-78
2021/05/03 12:34:26;;;;;;;1.48;0.73;;;19.20;99.90;;;;;;5030895;28;20496;-78
2021/05/03 12:37:04;;;;;;;19.77;1.10;;;19.20;99.90;;;;;;5047949;28;20032;-77
2021/05/03 12:39:31;;;;;;;7.00;0.95;;;19.20;99.90;;;;;;5032204;28;20025;-77
2021/05/03 12:41:56;;;;;;;2.03;1.02;;;19.10;99.90;;;;;;5031610;28;20107;-78
2021/05/03 12:44:25;;;;;;;2.80;0.85;;;19.10;99.90;;;;;;5031643;28;20478;-78
2021/05/03 12:46:52;;;;;;;0.77;0.63;;;19.10;99.90;;;;;;5030637;28;21061;-78
2021/05/03 12:49:28;;;;;;;1.10;0.80;;;19.20;99.90;;;;;;5031106;28;20059;-78
2021/05/03 12:52:07;;;;;;;1.10;0.70;;;19.10;99.20;;;;;;5031301;28;20017;-78
2021/05/03 12:54:41;;;;;;;3.67;1.27;;;19.10;99.60;;;;;;5031160;28;20037;-78
2021/05/03 12:57:19;;;;;;;1.00;0.68;;;19.20;99.90;;;;;;5028153;28;20108;-78
2021/05/03 12:59:52;;;;;;;0.77;0.77;;;19.20;99.90;;;;;;5029305;28;20070;-78
2021/05/03 13:29:45;;;;;;;8.18;0.75;;;19.40;98.90;;;;;;5030476;28;20578;-79
2021/05/03 13:32:19;;;;;;;5.82;0.68;;;19.60;98.50;;;;;;5029775;28;20064;-79
2021/05/03 13:34:46;;;;;;;1.63;1.35;;;19.40;98.00;;;;;;5029781;28;20049;-78
2021/05/03 13:37:12;;;;;;;0.60;0.60;;;19.40;97.50;;;;;;5030496;28;20536;-79
2021/05/03 13:39:38;;;;;;;0.98;0.70;;;19.40;97.20;;;;;;5030244;28;20082;-78
2021/05/03 13:42:07;;;;;;;0.80;0.60;;;19.40;98.20;;;;;;5030875;28;20382;-78
2021/05/03 13:44:33;;;;;;;3.05;1.13;;;19.50;97.10;;;;;;5030059;28;20390;-78
2021/05/03 13:46:59;;;;;;;0.65;0.65;;;19.60;96.50;;;;;;5030728;28;20043;-78
2021/05/03 13:49:24;;;;;;;1.52;0.70;;;19.60;96.70;;;;;;5030801;28;20121;-78
2021/05/03 13:51:50;;;;;;;0.50;0.50;;;19.60;96.40;;;;;;5030651;28;20032;-79